Airfield :
LOGIN :

Register | Disclaimer

   EN    FR    IT 

 










Legend :    VFR   Marginal VFR   IFR   Intensive IFR   Very Intensive IFR
Visi :
Ceiling :
>= 8 km
>= 3000ft
5 to 8 km
1000 to 3000 ft
1500m to 5 km
500 to 1000 ft
800 to 1500m
200 to 500 ft
< 800m
< 200 ft
Symbols :   Thunderstorms  Fog  Heavy snow  Heavy precipitations  Wind > 20 kt
SIGMETs :     Misc.  Thunderstorms  Icing  Turbulence  Mountain Waves  Volcanic Ashes






- Airport Elevation : 270 ft
- IATA code : OXF


EGTK - Oxford (Kidlington)

CURRENT METAR :
  • 081450Z 35002KT 9999 FEW044 11/01 Q1022

EXPIRED METARs :
  • 081420Z VRB03KT 9999 FEW040 10/01 Q1022
  • 081350Z 23004KT 200V300 CAVOK 10/02 Q1023
  • 081320Z 23004KT 170V260 CAVOK 10/03 Q1023
  • 081250Z 21006KT 180V240 CAVOK 09/04 Q1023
  • 081220Z 22006KT CAVOK 09/03 Q1023

TAF TAF EGTK
Valid from the 08 at 15:00 until the 08 at 23:00 UTC


081356Z 0815/0823 25004KT 9999 FEW040



MET'MAP, your aeronautical weather chart ! - Copyright ORBIFLY December 2007 - Disclaimer

ORBIFLY MET'MAP TEAM :

Programming & Development : Alexandra Zaïnal
Concept & original design : Baudouin d'Aumeries
Assistance for programming : Marc-Olivier Méhu
Technical & hardware support : Manuel Goepfert

Contact : metmap@orbifly.com




SOURCES & CREDITS :

   NOAA